createdAt,value
2017-08-31T00:00:35.755Z,22.40
2017-08-31T00:03:03.990Z,22.30
2017-08-31T00:05:32.234Z,22.20
2017-08-31T00:08:00.514Z,22.10
2017-08-31T00:10:28.755Z,22.10
2017-08-31T00:12:56.996Z,22.10
2017-08-31T00:15:25.257Z,22.10
2017-08-31T00:17:53.509Z,22.20
2017-08-31T00:20:21.756Z,22.20
2017-08-31T00:22:50.855Z,22.10
2017-08-31T00:25:19.098Z,22.10
2017-08-31T00:27:47.342Z,22.10
2017-08-31T00:30:15.610Z,22.10
2017-08-31T00:32:43.858Z,22.20
2017-08-31T00:35:12.103Z,22.20
2017-08-31T00:37:40.370Z,22.20
2017-08-31T00:40:09.376Z,22.20
2017-08-31T00:42:37.610Z,22.20
2017-08-31T00:45:05.965Z,22.30
2017-08-31T00:47:34.210Z,22.30
2017-08-31T00:50:02.451Z,22.30
2017-08-31T00:52:30.722Z,22.20
2017-08-31T00:54:58.966Z,22.10
2017-08-31T00:57:27.202Z,22.10
2017-08-31T00:59:55.574Z,22.10
2017-08-31T01:02:23.818Z,22.10
2017-08-31T01:04:52.064Z,22.10
2017-08-31T01:07:20.630Z,22.20
2017-08-31T01:09:48.870Z,22.20
2017-08-31T01:12:17.117Z,22.20
2017-08-31T01:14:45.389Z,22.10
2017-08-31T01:17:13.636Z,22.10
2017-08-31T01:19:41.878Z,22.10
2017-08-31T01:22:10.171Z,22.20
2017-08-31T01:24:38.402Z,22.20
2017-08-31T01:27:06.639Z,22.20
2017-08-31T01:29:35.736Z,22.20
2017-08-31T01:32:03.970Z,22.20
2017-08-31T01:34:32.206Z,22.10
2017-08-31T01:37:00.879Z,22.10
2017-08-31T01:39:29.121Z,22.10
2017-08-31T01:41:57.366Z,22.10
2017-08-31T01:44:25.634Z,22.10
2017-08-31T01:46:53.884Z,22.10
2017-08-31T01:49:22.126Z,22.10
2017-08-31T01:51:50.529Z,22.10
2017-08-31T01:54:18.837Z,22.10
2017-08-31T01:56:47.085Z,22.10
2017-08-31T01:59:15.362Z,22.20
2017-08-31T02:01:43.998Z,22.20
2017-08-31T02:04:12.241Z,22.20
2017-08-31T02:06:41.672Z,22.20
2017-08-31T02:09:09.915Z,22.20
2017-08-31T02:11:38.157Z,22.20
2017-08-31T02:14:06.718Z,22.20
2017-08-31T02:16:34.965Z,22.20
2017-08-31T02:19:03.231Z,22.10
2017-08-31T02:21:31.494Z,22.10
2017-08-31T02:23:59.746Z,22.10
2017-08-31T02:26:27.995Z,22.10
2017-08-31T02:28:56.473Z,22.10
2017-08-31T02:31:24.720Z,22.10
2017-08-31T02:33:52.958Z,22.10
2017-08-31T02:36:21.286Z,22.10
2017-08-31T02:38:49.534Z,22.20
2017-08-31T02:41:17.790Z,22.20
2017-08-31T02:43:46.066Z,22.20
2017-08-31T02:46:14.315Z,22.20
2017-08-31T02:48:42.569Z,22.20
2017-08-31T02:51:10.842Z,22.20
2017-08-31T02:53:39.090Z,22.20
2017-08-31T02:56:07.340Z,22.20
2017-08-31T02:58:35.850Z,22.10
2017-08-31T03:01:04.090Z,22.10
2017-08-31T03:03:32.621Z,22.10
2017-08-31T03:06:01.100Z,22.10
2017-08-31T03:08:29.349Z,22.10
2017-08-31T03:10:57.594Z,22.10
2017-08-31T03:13:25.858Z,22.10
2017-08-31T03:15:54.102Z,22.10
2017-08-31T03:18:22.355Z,22.00
2017-08-31T03:20:51.249Z,22.00
2017-08-31T03:23:19.497Z,22.10
2017-08-31T03:25:47.737Z,22.00
2017-08-31T03:28:16.007Z,22.00
2017-08-31T03:30:44.250Z,21.90
2017-08-31T03:33:12.486Z,21.80
2017-08-31T03:35:41.513Z,21.80
2017-08-31T03:38:09.907Z,21.80
2017-08-31T03:40:38.150Z,21.70
2017-08-31T03:43:06.974Z,21.70
2017-08-31T03:45:35.222Z,21.70
2017-08-31T03:48:03.461Z,21.60
2017-08-31T03:50:31.736Z,21.60
2017-08-31T03:52:59.978Z,21.70
2017-08-31T03:55:28.223Z,21.70
2017-08-31T03:57:56.517Z,21.60
2017-08-31T04:00:24.778Z,21.70
2017-08-31T04:02:53.022Z,21.70
2017-08-31T04:05:21.796Z,21.60
2017-08-31T04:07:50.034Z,21.60
2017-08-31T04:10:18.274Z,21.70
2017-08-31T04:12:46.543Z,21.70
2017-08-31T04:15:14.783Z,21.60
2017-08-31T04:17:43.026Z,21.60
2017-08-31T04:20:11.374Z,21.60
2017-08-31T04:22:39.618Z,21.60
2017-08-31T04:25:07.858Z,21.60
2017-08-31T04:27:36.214Z,21.60
2017-08-31T04:30:05.222Z,21.50
2017-08-31T04:32:33.538Z,21.50
2017-08-31T04:35:01.798Z,21.40
2017-08-31T04:37:30.958Z,21.30
2017-08-31T04:39:59.978Z,21.30
2017-08-31T04:42:28.253Z,21.30
2017-08-31T04:44:56.498Z,21.30
2017-08-31T04:47:24.738Z,21.30
2017-08-31T04:49:53.505Z,21.30
2017-08-31T04:52:22.731Z,21.30
2017-08-31T04:54:50.969Z,21.20
2017-08-31T04:57:19.234Z,21.20
2017-08-31T04:59:47.483Z,21.30
2017-08-31T05:02:15.944Z,21.30
2017-08-31T05:04:44.222Z,21.30
2017-08-31T05:07:12.739Z,21.30
2017-08-31T05:09:40.977Z,21.30
2017-08-31T05:12:09.838Z,21.40
2017-08-31T05:14:38.082Z,21.40
2017-08-31T05:17:06.414Z,21.40
2017-08-31T05:19:34.678Z,21.50
2017-08-31T05:22:03.885Z,21.60
2017-08-31T05:24:32.134Z,21.60
2017-08-31T05:27:00.402Z,21.70
2017-08-31T05:29:28.645Z,21.80
2017-08-31T05:31:56.899Z,21.80
2017-08-31T05:34:25.483Z,21.80
2017-08-31T05:36:53.726Z,21.80
2017-08-31T05:39:21.972Z,21.80
2017-08-31T05:41:50.229Z,21.80
2017-08-31T05:44:18.472Z,21.80
2017-08-31T05:46:46.774Z,21.90
2017-08-31T05:49:15.046Z,21.90
2017-08-31T05:51:43.282Z,21.90
2017-08-31T05:54:11.522Z,21.90
2017-08-31T05:56:40.206Z,21.80
2017-08-31T05:59:08.456Z,21.90
2017-08-31T06:01:36.729Z,21.80
2017-08-31T06:04:04.998Z,21.90
2017-08-31T06:06:33.237Z,22.00
2017-08-31T06:09:01.677Z,22.10
2017-08-31T06:11:29.949Z,22.20
2017-08-31T06:13:58.199Z,22.30
2017-08-31T06:16:26.443Z,22.30
2017-08-31T06:18:54.985Z,22.30
2017-08-31T06:21:23.238Z,22.30
2017-08-31T06:23:51.582Z,22.40
2017-08-31T06:26:21.316Z,22.40
2017-08-31T06:28:49.570Z,22.40
2017-08-31T06:31:18.142Z,22.40
2017-08-31T06:33:46.402Z,22.40
2017-08-31T06:36:15.415Z,22.50
2017-08-31T06:38:43.720Z,22.50
2017-08-31T06:41:12.201Z,22.50
2017-08-31T06:43:40.464Z,22.50
2017-08-31T06:46:08.690Z,22.30
2017-08-31T06:48:37.181Z,22.10
2017-08-31T06:51:05.426Z,22.00
2017-08-31T06:53:33.661Z,22.00
2017-08-31T06:56:01.929Z,22.10
2017-08-31T06:58:30.174Z,22.10
2017-08-31T07:00:59.358Z,22.10
2017-08-31T07:03:27.674Z,22.10
2017-08-31T07:05:56.071Z,22.00
2017-08-31T07:08:24.297Z,22.00
2017-08-31T07:10:54.158Z,21.90
2017-08-31T07:13:22.403Z,21.80
2017-08-31T07:15:50.650Z,21.80
2017-08-31T07:18:18.965Z,21.70
2017-08-31T07:20:47.202Z,21.70
2017-08-31T07:23:15.447Z,21.70
2017-08-31T07:25:44.169Z,21.70
2017-08-31T07:28:13.362Z,21.70
2017-08-31T07:30:41.619Z,21.80
2017-08-31T07:33:09.888Z,21.80
2017-08-31T07:35:38.130Z,22.00
2017-08-31T07:38:06.570Z,22.10
2017-08-31T07:40:34.840Z,22.20
2017-08-31T07:43:03.078Z,22.40
2017-08-31T07:45:31.334Z,22.50
2017-08-31T07:47:59.653Z,22.60
2017-08-31T07:50:28.663Z,22.80
2017-08-31T07:52:56.901Z,22.80
2017-08-31T07:55:26.286Z,22.60
2017-08-31T07:57:54.578Z,22.70
2017-08-31T08:00:23.245Z,22.80
2017-08-31T08:02:52.277Z,23.20
2017-08-31T08:05:20.522Z,23.20
2017-08-31T08:07:48.762Z,23.30
2017-08-31T08:10:17.317Z,23.60
2017-08-31T08:12:46.006Z,23.70
2017-08-31T08:15:14.346Z,23.80
2017-08-31T08:17:42.772Z,23.70
2017-08-31T08:20:11.003Z,23.60
2017-08-31T08:22:40.018Z,23.80
2017-08-31T08:25:08.442Z,23.80
2017-08-31T08:27:36.915Z,23.80
2017-08-31T08:30:05.173Z,23.80
2017-08-31T08:32:33.942Z,23.80
2017-08-31T08:35:02.191Z,23.70
2017-08-31T08:37:30.430Z,23.70
2017-08-31T08:39:58.686Z,23.60
2017-08-31T08:42:26.973Z,23.50
2017-08-31T08:44:58.599Z,23.50
2017-08-31T08:47:26.850Z,23.60
2017-08-31T08:49:55.143Z,23.70
2017-08-31T08:52:23.371Z,23.80
2017-08-31T08:54:51.931Z,23.90
2017-08-31T08:57:20.166Z,23.90
2017-08-31T08:59:48.408Z,24.00
2017-08-31T09:02:16.673Z,24.10
2017-08-31T09:04:45.310Z,24.10
2017-08-31T09:07:13.944Z,24.10
2017-08-31T09:09:42.216Z,24.20
2017-08-31T09:12:10.451Z,24.20
2017-08-31T09:14:40.311Z,24.30
2017-08-31T09:17:08.838Z,24.20
2017-08-31T09:19:37.084Z,24.20
2017-08-31T09:22:05.550Z,24.20
2017-08-31T09:24:33.810Z,24.40
2017-08-31T09:27:02.053Z,24.40
2017-08-31T09:29:30.305Z,24.40
2017-08-31T09:31:58.564Z,24.40
2017-08-31T09:34:26.851Z,24.60
2017-08-31T09:36:55.154Z,24.60
2017-08-31T09:39:23.995Z,24.60
2017-08-31T09:41:52.239Z,24.70
2017-08-31T09:44:20.653Z,24.70
2017-08-31T09:46:48.918Z,24.80
2017-08-31T09:49:17.170Z,24.90
2017-08-31T09:51:45.410Z,24.90
2017-08-31T09:54:13.684Z,25.00
2017-08-31T09:56:42.858Z,24.80
2017-08-31T09:59:11.100Z,23.90
2017-08-31T10:01:39.691Z,23.30
2017-08-31T10:04:07.949Z,23.00
2017-08-31T10:06:36.186Z,22.90
2017-08-31T10:09:04.472Z,22.90
2017-08-31T10:11:32.719Z,22.70
2017-08-31T10:14:01.027Z,22.80
2017-08-31T10:16:29.761Z,22.80
2017-08-31T10:18:58.002Z,22.80
2017-08-31T10:21:27.361Z,22.90
2017-08-31T10:23:56.014Z,22.90
2017-08-31T10:26:24.322Z,22.90
2017-08-31T10:28:52.557Z,23.10
2017-08-31T10:31:20.822Z,23.20
2017-08-31T10:33:49.062Z,23.20
2017-08-31T10:36:17.330Z,23.30
2017-08-31T10:38:45.586Z,23.30
2017-08-31T10:41:13.839Z,23.20
2017-08-31T10:43:42.079Z,23.20
2017-08-31T10:46:10.784Z,23.20
2017-08-31T10:48:39.022Z,23.30
2017-08-31T10:51:07.261Z,23.40
2017-08-31T10:53:36.828Z,23.40
2017-08-31T10:56:05.068Z,23.40
2017-08-31T10:58:33.310Z,23.50
2017-08-31T11:01:01.572Z,23.60
2017-08-31T11:03:29.801Z,23.70
2017-08-31T11:05:58.046Z,23.80
2017-08-31T11:08:27.086Z,23.80
2017-08-31T11:10:55.330Z,23.80
2017-08-31T11:13:23.562Z,23.80
2017-08-31T11:15:51.830Z,23.80
2017-08-31T11:18:20.621Z,23.80
2017-08-31T11:20:48.866Z,23.80
2017-08-31T11:23:17.391Z,23.60
2017-08-31T11:25:48.490Z,23.10
2017-08-31T11:28:16.880Z,23.00
2017-08-31T11:30:45.235Z,22.70
2017-08-31T11:33:13.513Z,22.60
2017-08-31T11:35:41.726Z,22.40
2017-08-31T11:38:10.110Z,22.30
2017-08-31T11:40:38.375Z,22.20
2017-08-31T11:43:06.598Z,22.10
2017-08-31T11:45:34.854Z,22.00
2017-08-31T11:48:03.102Z,22.00
2017-08-31T11:50:31.507Z,22.00
2017-08-31T11:53:00.117Z,22.00
2017-08-31T11:55:28.362Z,21.90
2017-08-31T11:57:56.602Z,21.90
2017-08-31T12:00:24.866Z,21.90
2017-08-31T12:02:53.148Z,21.80
2017-08-31T12:05:21.375Z,21.90
2017-08-31T12:07:49.638Z,22.00
2017-08-31T12:10:17.882Z,22.00
2017-08-31T12:12:46.165Z,22.00
2017-08-31T12:15:14.919Z,22.10
2017-08-31T12:17:43.220Z,22.10
2017-08-31T12:20:11.938Z,22.10
2017-08-31T12:22:41.016Z,22.00
2017-08-31T12:25:09.269Z,22.00
2017-08-31T12:27:37.501Z,22.00
2017-08-31T12:30:05.771Z,22.10
2017-08-31T12:32:34.090Z,22.20
2017-08-31T12:35:02.321Z,22.20
2017-08-31T12:37:30.643Z,22.30
2017-08-31T12:39:58.886Z,22.20
2017-08-31T12:42:27.122Z,22.20
2017-08-31T12:44:55.380Z,22.20
2017-08-31T12:47:23.623Z,22.20
2017-08-31T12:49:51.871Z,22.10
2017-08-31T12:52:20.134Z,22.10
2017-08-31T12:54:48.369Z,22.10
2017-08-31T12:57:16.609Z,22.00
2017-08-31T12:59:45.432Z,22.00
2017-08-31T13:02:13.674Z,22.00
2017-08-31T13:04:41.906Z,22.10
2017-08-31T13:07:10.930Z,22.20
2017-08-31T13:09:39.172Z,22.20
2017-08-31T13:12:07.398Z,22.40
2017-08-31T13:14:35.674Z,22.70
2017-08-31T13:17:03.927Z,22.90
2017-08-31T13:19:32.166Z,22.80
2017-08-31T13:22:01.458Z,22.60
2017-08-31T13:24:29.754Z,22.40
2017-08-31T13:26:57.990Z,22.60
2017-08-31T13:29:26.258Z,22.60
2017-08-31T13:31:54.490Z,22.60
2017-08-31T13:34:22.729Z,22.70
2017-08-31T13:36:50.997Z,22.70
2017-08-31T13:39:19.226Z,22.90
2017-08-31T13:41:47.464Z,23.20
2017-08-31T13:44:16.064Z,23.60
2017-08-31T13:46:44.313Z,24.40
2017-08-31T13:49:12.550Z,25.30
2017-08-31T13:51:40.815Z,25.50
2017-08-31T13:54:09.054Z,25.10
2017-08-31T13:56:37.302Z,24.50
2017-08-31T13:59:05.577Z,24.30
2017-08-31T14:01:33.818Z,24.40
2017-08-31T14:04:02.074Z,24.20
2017-08-31T14:06:30.401Z,23.60
2017-08-31T14:08:58.646Z,23.00
2017-08-31T14:11:27.125Z,22.60
2017-08-31T14:13:55.395Z,22.40
2017-08-31T14:16:23.637Z,22.10
2017-08-31T14:18:51.882Z,22.10
2017-08-31T14:21:20.147Z,22.10
2017-08-31T14:23:49.042Z,22.10
2017-08-31T14:26:17.335Z,22.00
2017-08-31T14:28:45.850Z,21.90
2017-08-31T14:31:14.111Z,21.90
2017-08-31T14:33:42.362Z,21.90
2017-08-31T14:36:10.637Z,21.90
2017-08-31T14:38:39.655Z,21.80
2017-08-31T14:41:07.906Z,21.80
2017-08-31T14:43:36.170Z,21.80
2017-08-31T14:46:04.410Z,21.70
2017-08-31T14:48:32.652Z,21.60
2017-08-31T14:51:00.979Z,21.60
2017-08-31T14:53:30.149Z,21.70
2017-08-31T14:55:59.467Z,21.70
2017-08-31T14:58:27.860Z,21.60
2017-08-31T15:00:56.079Z,21.60
2017-08-31T15:03:24.322Z,21.60
2017-08-31T15:05:52.582Z,21.60
2017-08-31T15:08:20.858Z,21.50
2017-08-31T15:10:49.085Z,21.50
2017-08-31T15:13:17.654Z,21.50
2017-08-31T15:15:45.906Z,21.50
2017-08-31T15:18:14.146Z,21.50
2017-08-31T15:20:42.436Z,21.50
2017-08-31T15:23:10.714Z,21.40
2017-08-31T15:25:39.441Z,21.40
2017-08-31T15:28:07.957Z,21.40
2017-08-31T15:30:36.183Z,21.50
2017-08-31T15:33:04.422Z,21.40
2017-08-31T15:35:32.689Z,21.40
2017-08-31T15:38:00.985Z,21.30
2017-08-31T15:40:29.221Z,21.30
2017-08-31T15:42:58.685Z,21.20
2017-08-31T15:45:26.922Z,21.20
2017-08-31T15:47:55.161Z,21.10
2017-08-31T15:50:24.270Z,21.20
2017-08-31T15:52:52.490Z,21.20
2017-08-31T15:55:20.738Z,21.10
2017-08-31T15:57:48.998Z,21.10
2017-08-31T16:00:17.527Z,21.10
2017-08-31T16:02:45.762Z,21.10
2017-08-31T16:05:14.026Z,21.00
2017-08-31T16:07:42.503Z,21.00
2017-08-31T16:10:10.904Z,21.10
2017-08-31T16:12:39.615Z,21.10
2017-08-31T16:15:08.114Z,21.00
2017-08-31T16:17:36.350Z,21.00
2017-08-31T16:20:04.610Z,20.90
2017-08-31T16:22:33.037Z,20.90
2017-08-31T16:25:01.271Z,20.90
2017-08-31T16:27:32.296Z,20.90
2017-08-31T16:30:01.302Z,20.60
2017-08-31T16:32:29.650Z,20.60
2017-08-31T16:34:58.391Z,20.50
2017-08-31T16:37:26.856Z,20.50
2017-08-31T16:39:55.594Z,20.60
2017-08-31T16:42:23.866Z,20.40
2017-08-31T16:44:52.101Z,20.40
2017-08-31T16:47:20.338Z,20.50
2017-08-31T16:49:49.366Z,20.40
2017-08-31T16:52:17.614Z,20.40
2017-08-31T16:54:45.853Z,20.40
2017-08-31T16:57:14.162Z,20.40
2017-08-31T16:59:42.404Z,20.30
2017-08-31T17:02:10.636Z,20.40
2017-08-31T17:04:38.910Z,20.40
2017-08-31T17:07:07.918Z,20.40
2017-08-31T17:09:36.230Z,20.30
2017-08-31T17:12:04.503Z,20.40
2017-08-31T17:14:32.736Z,20.50
2017-08-31T17:17:01.060Z,20.50
2017-08-31T17:19:29.525Z,20.60
2017-08-31T17:21:57.778Z,20.50
2017-08-31T17:24:26.386Z,20.40
2017-08-31T17:26:55.867Z,20.40
2017-08-31T17:29:24.802Z,20.40
2017-08-31T17:31:53.517Z,20.40
2017-08-31T17:34:21.885Z,20.40
2017-08-31T17:36:50.246Z,20.40
2017-08-31T17:39:18.694Z,20.40
2017-08-31T17:41:47.086Z,20.20
2017-08-31T17:44:15.382Z,20.20
2017-08-31T17:46:43.856Z,20.10
2017-08-31T17:49:12.169Z,20.10
2017-08-31T17:51:42.370Z,20.00
2017-08-31T17:54:10.949Z,19.80
2017-08-31T17:56:39.202Z,19.60
2017-08-31T17:59:07.506Z,19.60
2017-08-31T18:01:36.162Z,19.70
2017-08-31T18:04:04.642Z,19.60
2017-08-31T18:06:32.944Z,19.40
2017-08-31T18:09:02.253Z,19.40
2017-08-31T18:11:30.657Z,19.40
2017-08-31T18:13:59.001Z,19.40
2017-08-31T18:16:27.382Z,19.40
2017-08-31T18:18:56.422Z,19.20
2017-08-31T18:21:24.750Z,19.10
2017-08-31T18:23:53.130Z,19.10
2017-08-31T18:26:21.716Z,19.10
2017-08-31T18:28:49.935Z,19.20
2017-08-31T18:31:18.586Z,19.10
2017-08-31T18:33:46.986Z,19.10
2017-08-31T18:36:18.609Z,19.20
2017-08-31T18:38:48.054Z,19.30
2017-08-31T18:41:18.004Z,19.20
2017-08-31T18:43:52.595Z,19.30
2017-08-31T18:46:20.945Z,19.30
2017-08-31T18:48:49.170Z,19.30
2017-08-31T18:51:17.630Z,19.30
2017-08-31T18:53:46.890Z,19.20
2017-08-31T18:56:15.270Z,19.20
2017-08-31T18:58:43.693Z,19.20
2017-08-31T19:01:12.699Z,19.10
2017-08-31T19:03:41.018Z,19.10
2017-08-31T19:06:09.758Z,19.10
2017-08-31T19:08:39.631Z,19.00
2017-08-31T19:11:08.208Z,19.00
2017-08-31T19:13:36.841Z,18.90
2017-08-31T19:16:05.109Z,18.90
2017-08-31T19:18:33.650Z,19.00
2017-08-31T19:21:02.202Z,18.80
2017-08-31T19:23:31.480Z,18.70
2017-08-31T19:25:59.976Z,18.90
2017-08-31T19:28:28.285Z,18.80
2017-08-31T19:30:57.695Z,19.00
2017-08-31T19:33:26.798Z,19.00
2017-08-31T19:35:55.198Z,18.90
2017-08-31T19:38:23.547Z,18.90
2017-08-31T19:40:51.930Z,19.00
2017-08-31T19:43:23.422Z,18.90
2017-08-31T19:45:51.762Z,18.90
2017-08-31T19:48:20.223Z,18.90
2017-08-31T19:50:49.058Z,18.90
2017-08-31T19:53:17.278Z,18.80
2017-08-31T19:55:47.730Z,18.80
2017-08-31T19:58:17.985Z,18.90
2017-08-31T20:00:46.332Z,18.80
2017-08-31T20:03:14.569Z,18.80
2017-08-31T20:05:42.842Z,18.70
2017-08-31T20:08:11.162Z,18.70
2017-08-31T20:10:39.550Z,18.60
2017-08-31T20:13:08.547Z,18.60
2017-08-31T20:15:36.915Z,18.60
2017-08-31T20:18:05.318Z,18.60
2017-08-31T20:20:33.707Z,18.60
2017-08-31T20:23:02.720Z,18.70
2017-08-31T20:25:31.054Z,18.70
2017-08-31T20:27:59.324Z,18.60
2017-08-31T20:30:27.817Z,18.60
2017-08-31T20:32:56.507Z,18.70
2017-08-31T20:35:25.602Z,18.60
2017-08-31T20:37:53.890Z,18.60
2017-08-31T20:40:22.265Z,18.60
2017-08-31T20:42:50.658Z,18.50
2017-08-31T20:45:20.854Z,18.40
2017-08-31T20:47:49.231Z,18.40
2017-08-31T20:50:17.618Z,18.40
2017-08-31T20:52:45.982Z,18.40
2017-08-31T20:55:14.383Z,18.40
2017-08-31T20:57:43.501Z,18.30
2017-08-31T21:00:11.761Z,18.40
2017-08-31T21:02:40.768Z,18.60
2017-08-31T21:05:09.802Z,18.70
2017-08-31T21:07:38.109Z,18.60
2017-08-31T21:10:06.475Z,18.60
2017-08-31T21:12:37.954Z,18.50
2017-08-31T21:15:07.914Z,18.40
2017-08-31T21:17:37.138Z,18.30
2017-08-31T21:20:06.830Z,18.30
2017-08-31T21:22:35.130Z,18.30
2017-08-31T21:25:03.377Z,18.30
2017-08-31T21:27:31.662Z,18.30
2017-08-31T21:29:59.902Z,18.30
2017-08-31T21:32:28.334Z,18.40
2017-08-31T21:34:56.760Z,18.50
2017-08-31T21:37:26.354Z,18.30
2017-08-31T21:39:54.607Z,18.30
2017-08-31T21:42:22.906Z,18.30
2017-08-31T21:44:51.357Z,18.30
2017-08-31T21:47:19.578Z,18.40
2017-08-31T21:49:47.843Z,18.30
2017-08-31T21:52:16.189Z,18.40
2017-08-31T21:54:44.414Z,18.30
2017-08-31T21:57:12.683Z,18.20
2017-08-31T21:59:40.926Z,18.20
2017-08-31T22:02:09.190Z,18.20
2017-08-31T22:04:37.545Z,18.20
2017-08-31T22:07:05.920Z,18.10
2017-08-31T22:09:34.323Z,18.10
2017-08-31T22:12:02.849Z,18.10
2017-08-31T22:14:31.986Z,18.10
2017-08-31T22:17:00.218Z,18.10
2017-08-31T22:19:28.904Z,18.10
2017-08-31T22:21:57.127Z,18.10
2017-08-31T22:24:25.360Z,18.10
2017-08-31T22:26:53.830Z,18.10
2017-08-31T22:29:22.072Z,18.20
2017-08-31T22:31:50.363Z,18.40
2017-08-31T22:34:18.629Z,18.40
2017-08-31T22:36:46.870Z,18.40
2017-08-31T22:39:15.748Z,18.30
2017-08-31T22:41:44.006Z,18.30
2017-08-31T22:44:12.247Z,18.30
2017-08-31T22:46:40.626Z,18.30
2017-08-31T22:49:09.067Z,18.20
2017-08-31T22:51:38.122Z,18.10
2017-08-31T22:54:06.358Z,18.10
2017-08-31T22:56:59.528Z,18.00
2017-08-31T22:59:27.796Z,17.80
2017-08-31T23:01:56.031Z,17.80
2017-08-31T23:04:24.549Z,17.90
2017-08-31T23:06:52.788Z,17.90
2017-08-31T23:09:21.026Z,17.80
2017-08-31T23:11:49.321Z,17.80
2017-08-31T23:14:17.565Z,17.80
2017-08-31T23:16:45.810Z,17.90
2017-08-31T23:19:14.074Z,17.90
2017-08-31T23:21:42.521Z,17.80
2017-08-31T23:24:10.758Z,17.80
2017-08-31T23:26:39.345Z,17.80
2017-08-31T23:29:07.588Z,17.80
2017-08-31T23:31:36.031Z,17.80
2017-08-31T23:34:04.290Z,17.80
2017-08-31T23:36:32.533Z,17.90
2017-08-31T23:39:00.770Z,17.90
2017-08-31T23:41:29.674Z,17.80
2017-08-31T23:43:57.919Z,17.80
2017-08-31T23:46:26.154Z,17.80
2017-08-31T23:48:54.490Z,17.80
2017-08-31T23:51:22.730Z,17.80
2017-08-31T23:53:50.971Z,17.80
2017-08-31T23:56:19.241Z,17.70
2017-08-31T23:58:48.253Z,17.60
